MDT,Max TemperatureF,Mean TemperatureF,Min TemperatureF,Max Dew PointF,MeanDew PointF,Min DewpointF,Max Humidity, Mean Humidity, Min Humidity, Max Sea Level PressureIn, Mean Sea Level PressureIn, Min Sea Level PressureIn, Max VisibilityMiles, Mean VisibilityMiles, Min VisibilityMiles, Max Wind SpeedMPH, Mean Wind SpeedMPH, Max Gust SpeedMPH,PrecipitationIn, CloudCover, Events, WindDirDegrees
2010-10-1,83,65,46,48,45,39,76,54,31,30.14,30.07,29.99,10,10,10,15,6,18,0.00,0,,96
2010-10-2,63,56,49,48,42,31,77,59,41,30.43,30.27,30.12,10,10,10,20,10,25,0.00,3,,79
2010-10-3,78,63,47,48,41,31,72,52,31,30.26,30.11,29.96,10,10,10,29,15,37,0.00,0,,147
2010-10-4,82,63,44,50,47,44,100,65,30,30.03,29.97,29.90,10,10,8,26,13,37,0.00,0,,137
2010-10-5,89,68,47,49,45,42,93,57,21,30.06,30.00,29.94,10,10,10,23,9,30,0.00,0,,173
2010-10-6,84,65,46,48,46,44,86,56,26,30.18,30.11,30.05,10,10,8,16,4,21,0.00,0,,23
2010-10-7,89,66,43,48,42,35,93,55,16,30.19,30.06,29.95,10,10,8,20,8,25,0.00,0,,180
2010-10-8,87,65,42,40,35,23,52,34,15,30.01,29.89,29.75,10,10,10,31,12,44,T,1,Rain-Thunderstorm,219
2010-10-9,76,58,40,33,30,24,70,43,16,30.09,30.02,29.96,10,10,10,17,8,24,0.00,1,,259
2010-10-10,70,54,37,46,37,28,80,56,32,30.06,29.96,29.88,10,10,10,24,10,30,T,4,,300
2010-10-11,72,55,37,45,40,33,86,59,31,30.06,29.96,29.91,10,10,10,15,10,18,0.00,1,,331
2010-10-12,70,51,32,45,38,29,89,66,42,30.37,30.23,30.05,10,10,10,23,8,29,0.00,2,,336
2010-10-13,69,51,33,41,37,34,92,60,28,30.49,30.37,30.29,10,10,10,15,6,18,0.00,2,,203
2010-10-14,80,58,35,40,35,32,92,56,19,30.30,30.20,30.10,10,10,10,13,5,15,0.00,0,,245
2010-10-15,88,60,32,33,29,26,82,47,11,30.12,30.00,29.88,10,10,7,20,6,26,0.00,0,,206
2010-10-16,77,57,36,35,29,26,64,40,16,30.13,30.03,29.89,10,10,10,17,8,22,0.00,0,,24
2010-10-17,76,53,30,36,32,25,78,50,21,30.13,30.00,29.86,10,10,10,10,4,13,0.00,0,,137
2010-10-18,66,53,39,38,36,34,76,53,29,30.10,30.01,29.87,10,10,10,16,5,20,0.00,1,,23
2010-10-19,71,54,37,37,33,26,79,52,25,30.09,30.03,29.95,10,10,10,10,4,14,0.00,2,,180
2010-10-20,77,54,30,33,28,23,72,45,17,30.11,30.03,29.94,10,10,10,13,4,15,0.00,0,,235
2010-10-21,68,52,36,53,39,28,89,61,32,30.03,29.92,29.78,10,10,10,20,7,24,0.01,1,Rain,161
2010-10-22,74,60,45,51,44,34,96,61,25,29.81,29.68,29.56,10,10,9,23,11,28,0.01,2,Rain,152
2010-10-23,73,55,36,43,38,33,92,62,31,29.75,29.64,29.55,10,10,9,17,7,21,0.00,2,,285
2010-10-24,74,52,29,36,30,23,92,56,20,29.81,29.68,29.43,10,10,10,14,5,17,0.00,0,,214
2010-10-25,73,51,28,37,29,9,65,41,17,29.56,29.29,29.08,10,9,5,40,15,49,T,2,Rain,276
2010-10-26,62,44,25,19,10,2,63,37,10,29.80,29.64,29.55,10,10,9,35,15,43,0.00,0,,263
2010-10-27,63,43,22,13,5,-2,50,29,8,30.44,30.10,29.80,10,10,10,24,10,31,0.00,0,,255
2010-10-28,66,41,16,16,10,4,51,31,11,30.63,30.43,30.24,10,10,10,22,9,25,0.00,0,,177
2010-10-29,81,52,23,19,12,8,55,31,7,30.22,30.04,29.83,10,10,7,14,6,17,0.00,0,,238
2010-10-30,80,59,38,25,19,13,39,24,8,29.96,29.85,29.74,10,10,10,16,9,21,0.00,0,,150
2010-10-31,64,48,32,33,30,25,76,55,34,30.16,29.96,29.73,10,10,10,15,6,18,0.00,0,,43